Home

PKWA Terminal Aerodrome Forecast (TAF)small logo


TAF provided by NWS Guam
2014/10/25 18:30
TAF PKWA 251725Z 2518/2618 03011KT P6SM VCSH FEW018 SCT050 BKN140 
     FM260000 07011KT P6SM VCSH FEW018 SCT050 BKN140

      



Site Map | Contact Us | Copyright © 2007 Atmospheric Technology Services Company. All rights reserved.